AirNav   Duncan Aviation - Near you to keep you flying
 
 506 users online  

51WI Gallinger Airport
Oshkosh, Wisconsin, USA

GOING TO OSHKOSH?


FAA INFORMATION EFFECTIVE 26 JANUARY 2023

Location

FAA Identifier: 51WI
Lat/Long: 44-03-45.9420N 088-33-26.4050W
44-03.765700N 088-33.440083W
44.0627617,-88.5573347
(estimated)
Elevation: 800 ft. / 244 m (estimated)
Variation: 01W (1985)
From city: 2 miles N of OSHKOSH, WI
Time zone: UTC -6 (UTC -5 during Daylight Saving Time)
Zip code: 54901

Airport Operations

Airport use: Private use. Permission required prior to landing
Activation date: 09/1979
Control tower: no
ARTCC: CHICAGO CENTER
FSS: GREEN BAY FLIGHT SERVICE STATION
Attendance: UNATNDD
Wind indicator: no
Segmented circle: no

Airport Communications

WX ASOS at OSH (5 nm S): PHONE 920-426-1644
WX AWOS-3 at ATW (12 nm N): PHONE 920-832-2597
WX ASOS at FLD (18 nm S): 134.0 (920-922-4444)

Nearby radio navigation aids

VOR radial/distance  VOR name  Freq  Var
OSHr357/4.3OSHKOSH VORTAC116.7502E
GRBr207/33.4GREEN BAY VORTAC115.5001E

 
NDB name  Hdg/Dist  Freq  Var  ID
POBER003/11.339503WOS --- ...
KOOKY219/11.440702WAQ .- --.-

Airport Services

Runway Information

Runway 9/27

Dimensions: 2200 x 100 ft. / 671 x 30 m
Surface: turf
RUNWAY 9  RUNWAY 27
Traffic pattern: leftleft

Airport Ownership and Management from official FAA records

Ownership: Privately-owned
Owner: GORDON GALLINGER
3325 VINLAND RD
OSHKOSH, WI 54901
Manager: GORDON GALLINGER
3325 VINLAND RD
OSHKOSH, WI 54901
OTHER: ROBERT GALLINGER 555 GLENDALE AVE OSHKOSH WI 54901 920-203-0256

Airport Operational Statistics

Aircraft based on the field: 1
Single engine airplanes: 1
    

Additional Remarks

FOR CD CTC CHICAGO ARTCC AT 630-906-8921.

Instrument Procedures

There are no published instrument procedures at 51WI.

Some nearby airports with instrument procedures:

KOSH - Wittman Regional Airport (5 nm S)
KATW - Appleton International Airport (12 nm N)
KFLD - Fond Du Lac County Airport (18 nm S)
8D1 - New Holstein Municipal Airport (20 nm E)
KPCZ - Waupaca Municipal Airport (26 nm NW)
 
Loc | Ops | Rwys | IFR | FBO | Links
Com | Nav | Svcs | Stats | Notes
Area around 51WI (Gallinger Airport)
 
Road maps at: MapQuest Bing Google
 
Aerial photo
WARNING: Photo may not be current or correct
Aerial photo of 51WI (Gallinger Airport)
Do you have a better or more recent aerial photo of Gallinger Airport that you would like to share? If so, please send us your photo.

 
Sectional chart

 
Airport distance calculator
Flying to Gallinger Airport? Find the distance to fly.

From to 51WI

Sunrise and sunset
Times for 27-Jan-2023
 Local
(UTC-6)
 Zulu
(UTC)
Morning civil twilight06:4712:47
Sunrise07:1813:18
Sunset16:5622:56
Evening civil twilight17:2723:27

Current date and time
Zulu (UTC)  27-Jan-2023 10:31:40
Local (UTC-6)  27-Jan-2023 04:31:40
 
METAR
KOSH 
6nm S 
271000Z AUTO 17010KT 10SM SCT021 M12/M16 A2976 RMK AO2 T11221156
KATW 
11nm N 
271015Z AUTO 17010KT 10SM SCT021 M11/M14 A2973 RMK AO2
KFLD 
18nm S 
270953Z AUTO 19011KT 10SM CLR M10/M13 A2978 RMK AO2 SLP098 T11001133
TAF
KATW 
11nm N 
270520Z 2706/2806 22010KT P6SM SCT013 TEMPO 2708/2711 BKN013 FM271100 18012G20KT P6SM SCT015 BKN035 WS020/21040KT TEMPO 2713/2714 3SM -SN BKN025 FM271400 20015G27KT 2SM -SN BKN015 OVC025 WS020/21045KT TEMPO 2714/2718 3/4SM -SN OVC010 FM272000 24015G24KT P6SM -SHSN OVC018 FM272200 27016G25KT P6SM BKN022 FM280400 28013G22KT P6SM BKN030
NOTAMs
Click for the latest NOTAMs
NOTAMs are issued by the DoD/FAA and will open in a separate window not controlled by AirNav.

 

 
 

Would you like to see your business listed on this page?

 If your business provides an interesting product or service to pilots, flight crews, aircraft, or users of the Gallinger Airport, you should consider listing it here.  To start the listing process, click on the button below
 
Add a business
 

Other Pages about Gallinger Airport

Update a link
 
Copyright © AirNav, LLC. All rights reserved. Privacy Policy  Contact